createdAt,value
2018-07-26T00:04:33.183Z,8.88
2018-07-26T00:09:30.009Z,8.43
2018-07-26T00:14:26.757Z,8.03
2018-07-26T00:19:23.638Z,8.13
2018-07-26T00:24:20.356Z,8.53
2018-07-26T00:29:17.488Z,8.88
2018-07-26T00:34:14.140Z,8.83
2018-07-26T00:39:11.835Z,8.45
2018-07-26T00:44:08.654Z,8.50
2018-07-26T00:49:05.494Z,8.43
2018-07-26T00:54:02.513Z,8.18
2018-07-26T00:58:59.225Z,7.90
2018-07-26T01:03:56.109Z,8.48
2018-07-26T01:08:53.624Z,8.35
2018-07-26T01:13:50.427Z,8.25
2018-07-26T01:18:47.261Z,9.13
2018-07-26T01:23:43.946Z,8.88
2018-07-26T01:28:40.863Z,8.65
2018-07-26T01:33:37.540Z,9.23
2018-07-26T01:38:34.386Z,8.40
2018-07-26T01:43:46.533Z,9.07
2018-07-26T01:48:43.613Z,9.03
2018-07-26T01:53:40.550Z,9.57
2018-07-26T01:58:37.495Z,9.30
2018-07-26T02:03:34.554Z,9.57
2018-07-26T02:08:31.552Z,8.43
2018-07-26T02:13:28.625Z,9.10
2018-07-26T02:18:25.527Z,8.93
2018-07-26T02:23:22.724Z,10.32
2018-07-26T02:28:19.928Z,9.50
2018-07-26T02:33:16.895Z,8.60
2018-07-26T02:38:13.635Z,8.80
2018-07-26T02:43:11.421Z,9.10
2018-07-26T02:48:08.605Z,9.48
2018-07-26T02:53:05.887Z,9.33
2018-07-26T02:58:02.596Z,9.27
2018-07-26T03:03:00.118Z,9.07
2018-07-26T03:07:56.815Z,9.80
2018-07-26T03:12:54.014Z,9.58
2018-07-26T03:17:50.697Z,9.37
2018-07-26T03:22:47.551Z,9.17
2018-07-26T03:27:44.271Z,10.37
2018-07-26T03:32:41.179Z,10.17
2018-07-26T03:37:38.083Z,9.70
2018-07-26T03:42:35.066Z,9.33
2018-07-26T03:47:31.788Z,10.43
2018-07-26T03:52:28.679Z,9.60
2018-07-26T03:57:25.442Z,10.80
2018-07-26T04:02:22.803Z,10.37
2018-07-26T04:07:19.585Z,10.57
2018-07-26T04:12:16.426Z,9.60
2018-07-26T04:17:13.133Z,9.93
2018-07-26T04:22:10.130Z,10.67
2018-07-26T04:27:07.004Z,10.03
2018-07-26T04:32:04.054Z,10.23
2018-07-26T04:37:00.945Z,9.80
2018-07-26T04:41:58.159Z,9.03
2018-07-26T04:46:54.839Z,9.13
2018-07-26T04:51:51.885Z,9.10
2018-07-26T04:56:48.629Z,9.07
2018-07-26T05:01:46.041Z,9.83
2018-07-26T05:06:42.735Z,9.80
2018-07-26T05:11:39.651Z,9.03
2018-07-26T05:16:36.803Z,9.13
2018-07-26T05:21:33.620Z,9.13
2018-07-26T05:26:30.395Z,9.47
2018-07-26T05:31:27.102Z,8.20
2018-07-26T05:36:23.880Z,9.10
2018-07-26T05:41:20.827Z,7.93
2018-07-26T05:46:17.606Z,7.85
2018-07-26T05:51:14.594Z,8.55
2018-07-26T05:56:11.378Z,8.08
2018-07-26T06:01:08.485Z,7.42
2018-07-26T06:06:05.272Z,6.62
2018-07-26T06:11:02.769Z,6.15
2018-07-26T06:15:59.502Z,6.40
2018-07-26T06:20:56.595Z,6.33
2018-07-26T06:25:53.321Z,6.08
2018-07-26T06:30:50.389Z,5.67
2018-07-26T06:35:47.149Z,5.37
2018-07-26T06:40:43.892Z,4.90
2018-07-26T06:45:40.812Z,4.87
2018-07-26T06:50:38.044Z,4.47
2018-07-26T06:55:34.793Z,4.55
2018-07-26T07:00:31.702Z,4.00
2018-07-26T07:05:28.473Z,4.00
2018-07-26T07:10:25.384Z,4.47
2018-07-26T07:15:22.717Z,4.35
2018-07-26T07:20:19.691Z,4.35
2018-07-26T07:25:16.661Z,4.83
2018-07-26T07:30:13.568Z,4.42
2018-07-26T07:35:10.473Z,4.05
2018-07-26T07:40:08.127Z,3.60
2018-07-26T07:45:05.323Z,3.80
2018-07-26T07:50:02.202Z,3.83
2018-07-26T07:54:58.921Z,3.77
2018-07-26T07:59:56.058Z,3.90
2018-07-26T08:04:52.794Z,3.60
2018-07-26T08:09:49.737Z,3.62
2018-07-26T08:14:46.558Z,3.80
2018-07-26T08:19:44.033Z,3.85
2018-07-26T08:24:40.708Z,4.00
2018-07-26T08:29:37.889Z,3.55
2018-07-26T08:34:34.659Z,3.52
2018-07-26T08:39:31.528Z,3.90
2018-07-26T08:44:28.282Z,3.80
2018-07-26T08:49:25.136Z,3.42
2018-07-26T08:54:21.973Z,3.25
2018-07-26T08:59:18.991Z,3.40
2018-07-26T09:04:16.786Z,3.05
2018-07-26T09:09:13.751Z,3.10
2018-07-26T09:14:10.632Z,4.20
2018-07-26T09:19:08.117Z,3.60
2018-07-26T09:24:04.822Z,3.30
2018-07-26T09:29:01.759Z,3.22
2018-07-26T09:33:58.447Z,3.20
2018-07-26T09:38:55.382Z,3.22
2018-07-26T09:43:52.099Z,17.90
2018-07-26T09:48:49.007Z,5.10
2018-07-26T09:53:46.101Z,3.22
2018-07-26T09:58:42.787Z,5.10
2018-07-26T10:03:39.630Z,3.55
2018-07-26T10:08:36.411Z,3.70
2018-07-26T10:13:33.260Z,3.40
2018-07-26T10:18:29.928Z,4.95
2018-07-26T10:23:27.222Z,3.37
2018-07-26T10:28:23.940Z,3.20
2018-07-26T10:33:21.043Z,3.22
2018-07-26T10:38:18.043Z,3.62
2018-07-26T10:43:14.758Z,3.30
2018-07-26T10:48:12.421Z,4.92
2018-07-26T10:53:09.194Z,6.35
2018-07-26T10:58:06.129Z,4.33
2018-07-26T11:03:03.112Z,3.40
2018-07-26T11:07:59.848Z,3.10
2018-07-26T11:12:56.827Z,7.78
2018-07-26T11:17:53.665Z,5.47
2018-07-26T11:22:50.564Z,3.30
2018-07-26T11:27:47.404Z,3.15
2018-07-26T11:32:44.617Z,3.10
2018-07-26T11:37:41.806Z,3.45
2018-07-26T11:42:38.527Z,3.45
2018-07-26T11:47:35.855Z,3.45
2018-07-26T11:52:33.354Z,3.10
2018-07-26T11:57:30.510Z,2.72
2018-07-26T12:02:27.361Z,3.30
2018-07-26T12:07:24.227Z,3.30
2018-07-26T12:12:20.997Z,2.83
2018-07-26T12:17:18.091Z,3.10
2018-07-26T12:22:14.784Z,2.77
2018-07-26T12:27:11.663Z,3.52
2018-07-26T12:32:08.581Z,3.10
2018-07-26T12:37:05.504Z,2.83
2018-07-26T12:42:02.246Z,2.83
2018-07-26T12:46:59.171Z,3.10
2018-07-26T12:51:55.920Z,3.08
2018-07-26T12:56:53.507Z,2.95
2018-07-26T13:01:50.275Z,4.80
2018-07-26T13:06:47.488Z,2.92
2018-07-26T13:11:44.183Z,2.90
2018-07-26T13:16:41.114Z,2.98
2018-07-26T13:21:37.810Z,2.75
2018-07-26T13:26:34.922Z,2.62
2018-07-26T13:31:31.588Z,2.90
2018-07-26T13:36:28.517Z,3.12
2018-07-26T13:41:25.263Z,3.10
2018-07-26T13:46:22.234Z,2.85
2018-07-26T13:51:19.251Z,2.40
2018-07-26T13:56:16.234Z,2.80
2018-07-26T14:01:13.236Z,2.98
2018-07-26T14:06:10.003Z,3.12
2018-07-26T14:11:06.884Z,3.27
2018-07-26T14:16:04.044Z,2.98
2018-07-26T14:21:00.887Z,4.75
2018-07-26T14:25:57.767Z,3.50
2018-07-26T14:30:54.513Z,3.00
2018-07-26T14:35:51.434Z,2.98
2018-07-26T14:40:48.088Z,3.30
2018-07-26T14:45:45.072Z,3.00
2018-07-26T14:50:41.943Z,3.40
2018-07-26T14:55:38.730Z,3.22
2018-07-26T15:00:36.741Z,3.25
2018-07-26T15:05:33.597Z,3.40
2018-07-26T15:10:30.647Z,3.72
2018-07-26T15:15:27.701Z,10.58
2018-07-26T15:20:24.830Z,3.83
2018-07-26T15:25:25.638Z,4.03
2018-07-26T15:30:22.974Z,3.85
2018-07-26T15:35:20.057Z,13.58
2018-07-26T15:40:16.977Z,10.58
2018-07-26T15:45:15.337Z,4.25
2018-07-26T15:50:12.272Z,4.40
2018-07-26T15:55:09.456Z,3.72
2018-07-26T16:00:07.324Z,4.40
2018-07-26T16:05:04.887Z,3.90
2018-07-26T16:10:01.662Z,4.50
2018-07-26T16:14:58.593Z,6.35
2018-07-26T16:19:55.654Z,9.03
2018-07-26T16:24:53.829Z,9.25
2018-07-26T16:29:50.517Z,12.03
2018-07-26T16:34:47.634Z,9.70
2018-07-26T16:39:44.401Z,5.67
2018-07-26T16:44:41.135Z,5.50
2018-07-26T16:49:37.839Z,6.08
2018-07-26T16:54:34.434Z,4.25
2018-07-26T16:59:31.279Z,5.00
2018-07-26T17:04:28.190Z,4.30
2018-07-26T17:09:24.932Z,4.37
2018-07-26T17:14:21.906Z,4.37
2018-07-26T17:19:18.655Z,5.55
2018-07-26T17:24:15.737Z,4.50
2018-07-26T17:29:12.545Z,4.40
2018-07-26T17:34:09.612Z,4.78
2018-07-26T17:39:07.105Z,5.00
2018-07-26T17:44:04.021Z,4.80
2018-07-26T17:49:01.662Z,4.87
2018-07-26T17:53:58.639Z,4.80
2018-07-26T17:58:56.483Z,4.80
2018-07-26T18:03:53.335Z,5.10
2018-07-26T18:08:50.201Z,5.28
2018-07-26T18:13:47.946Z,4.65
2018-07-26T18:18:44.853Z,5.47
2018-07-26T18:23:41.898Z,5.00
2018-07-26T18:28:39.358Z,4.75
2018-07-26T18:33:36.267Z,6.53
2018-07-26T18:38:33.358Z,5.60
2018-07-26T18:43:30.173Z,5.97
2018-07-26T18:48:27.238Z,5.47
2018-07-26T18:53:24.147Z,5.33
2018-07-26T18:58:21.283Z,5.90
2018-07-26T19:03:18.730Z,6.40
2018-07-26T19:08:15.683Z,5.70
2018-07-26T19:13:12.439Z,5.75
2018-07-26T19:18:10.457Z,6.65
2018-07-26T19:23:07.192Z,6.00
2018-07-26T19:28:04.180Z,5.92
2018-07-26T19:33:01.830Z,6.05
2018-07-26T19:37:58.640Z,6.03
2018-07-26T19:42:55.384Z,5.97
2018-07-26T19:47:52.231Z,6.20
2018-07-26T19:52:49.107Z,6.85
2018-07-26T19:57:46.032Z,6.47
2018-07-26T20:02:42.917Z,6.45
2018-07-26T20:07:40.123Z,7.15
2018-07-26T20:12:36.799Z,7.20
2018-07-26T20:17:33.910Z,7.00
2018-07-26T20:22:30.654Z,6.97
2018-07-26T20:27:28.432Z,6.80
2018-07-26T20:32:25.166Z,7.03
2018-07-26T20:37:22.100Z,6.50
2018-07-26T20:42:18.864Z,7.78
2018-07-26T20:47:15.974Z,7.00
2018-07-26T20:52:12.993Z,7.58
2018-07-26T20:57:09.700Z,7.47
2018-07-26T21:02:06.932Z,7.83
2018-07-26T21:07:03.804Z,8.68
2018-07-26T21:12:00.984Z,7.37
2018-07-26T21:16:57.733Z,7.15
2018-07-26T21:21:54.603Z,7.33
2018-07-26T21:26:51.271Z,7.40
2018-07-26T21:31:48.192Z,7.53
2018-07-26T21:36:44.833Z,7.55
2018-07-26T21:41:41.811Z,7.22
2018-07-26T21:46:38.880Z,7.85
2018-07-26T21:51:35.628Z,7.55
2018-07-26T21:56:32.564Z,6.58
2018-07-26T22:01:29.477Z,7.10
2018-07-26T22:06:26.988Z,6.83
2018-07-26T22:11:23.921Z,7.33
2018-07-26T22:16:20.638Z,6.58
2018-07-26T22:21:17.492Z,7.65
2018-07-26T22:26:14.212Z,7.42
2018-07-26T22:31:11.330Z,7.42
2018-07-26T22:36:08.106Z,6.95
2018-07-26T22:41:05.085Z,6.58
2018-07-26T22:46:02.100Z,7.12
2018-07-26T22:50:58.845Z,7.42
2018-07-26T22:55:55.821Z,6.53
2018-07-26T23:00:52.560Z,7.45
2018-07-26T23:05:49.424Z,7.30
2018-07-26T23:10:46.069Z,7.12
2018-07-26T23:15:43.213Z,7.10
2018-07-26T23:20:39.929Z,7.10
2018-07-26T23:25:36.901Z,7.30
2018-07-26T23:30:33.621Z,7.53
2018-07-26T23:35:31.145Z,7.25
2018-07-26T23:40:27.856Z,7.53
2018-07-26T23:45:24.798Z,7.95
2018-07-26T23:50:21.526Z,8.40
2018-07-26T23:55:18.711Z,8.30
